首页
METAR-TAF:

METAR-TAF

机场 :

Powell River, 不列颠哥伦比亚, 加拿大

纬度: 49-50N, 经度: 124-30W, 海拔: 130米

当前天气观测

该预报发布于28分钟前的14:00 UTC
风速2节,风向东北
温度 7°C
湿度 100%
气压 1015 hPa
能見度: 40.2公里
少量云层高于2500英尺
少量云层高于25000英尺

METAR: CYPW 121400Z 05002KT 25SM FEW025 FEW250 07/07 A2998 RMK SC1CI1 SLP157

时间: 07:28 (14:28 UTC)


TAF: 丢失

超过4000个机场的气象观测和天气预报(METAR&TAF报告)。

可查询的气象台以黄色和红色小点在地图上表示。

将鼠标移到小点上方,可查看气象台名称。

然后点击查看天气观测和预报。

如需切换地图:点击带黑十字的绿色按钮放大地图;点击带横线的绿色按钮缩小地图;或者点击绿色箭头查看邻近地区的地图。


METAR-TAF: